Time;durP1;ratioP1;P1;durP2;ratioP2;P2;SDS_P1;SDS_P2;PMS_P1;PMS_P2;Temp;Humidity;BMP_temperature;BMP_pressure;BME280_temperature;BME280_humidity;BME280_pressure;Samples;Min_cycle;Max_cycle;Signal;HPM_P1;HPM_P2
2023/05/30 00:01:07;;;;;;;12.60;3.07;;;11.40;99.90;;;;;;5081146;28;20182;-68
2023/05/30 00:03:35;;;;;;;7.60;3.83;;;11.50;99.90;;;;;;5072459;28;20650;-69
2023/05/30 00:06:04;;;;;;;7.70;3.60;;;11.50;99.90;;;;;;5077292;28;20653;-68
2023/05/30 00:08:30;;;;;;;8.23;2.90;;;11.40;99.90;;;;;;5093248;28;20366;-67
2023/05/30 00:10:56;;;;;;;10.80;3.87;;;11.40;99.90;;;;;;5079871;28;20400;-68
2023/05/30 00:13:22;;;;;;;4.70;2.67;;;11.40;99.90;;;;;;5092611;28;20211;-68
2023/05/30 00:15:48;;;;;;;9.10;3.97;;;11.40;99.90;;;;;;5092478;28;20419;-68
2023/05/30 00:18:14;;;;;;;7.37;2.83;;;11.30;99.90;;;;;;5073371;28;21213;-68
2023/05/30 00:20:40;;;;;;;8.20;3.80;;;11.30;99.90;;;;;;5071213;28;20423;-67
2023/05/30 00:23:05;;;;;;;11.50;3.67;;;11.30;99.90;;;;;;5092364;28;20577;-66
2023/05/30 00:25:32;;;;;;;6.43;2.77;;;11.30;99.90;;;;;;5093378;28;20181;-68
2023/05/30 00:27:58;;;;;;;9.00;3.57;;;11.30;99.90;;;;;;5074351;28;20171;-68
2023/05/30 00:30:25;;;;;;;5.80;3.17;;;11.20;99.90;;;;;;5092437;28;20366;-71
2023/05/30 00:32:51;;;;;;;9.27;4.53;;;11.20;99.90;;;;;;5076671;28;20486;-68
2023/05/30 00:35:17;;;;;;;8.07;3.17;;;11.20;99.90;;;;;;5071902;28;20833;-68
2023/05/30 00:37:43;;;;;;;8.67;3.50;;;11.10;99.90;;;;;;5085071;28;20531;-67
2023/05/30 00:40:09;;;;;;;9.10;3.93;;;11.10;99.90;;;;;;5076703;28;20678;-68
2023/05/30 00:42:35;;;;;;;13.53;4.03;;;11.00;99.90;;;;;;5071522;28;20479;-68
2023/05/30 00:45:00;;;;;;;6.50;3.60;;;11.00;99.90;;;;;;5084587;28;20843;-69
2023/05/30 00:47:27;;;;;;;4.77;2.70;;;11.10;99.90;;;;;;5092981;28;20173;-68
2023/05/30 00:49:53;;;;;;;6.83;3.90;;;11.00;99.90;;;;;;5082646;28;20178;-67
2023/05/30 00:52:20;;;;;;;6.97;4.20;;;11.10;99.90;;;;;;5072328;28;20399;-68
2023/05/30 00:54:47;;;;;;;6.63;3.70;;;11.00;99.90;;;;;;5080050;28;20921;-68
2023/05/30 00:57:14;;;;;;;4.97;2.83;;;11.00;99.90;;;;;;5092243;28;20398;-68
2023/05/30 00:59:40;;;;;;;10.37;3.70;;;10.90;99.90;;;;;;5090277;28;20926;-68
2023/05/30 01:02:06;;;;;;;6.33;3.60;;;10.90;99.90;;;;;;5091777;28;20400;-69
2023/05/30 01:04:32;;;;;;;8.80;3.37;;;10.80;99.90;;;;;;5088886;28;20190;-67
2023/05/30 01:06:59;;;;;;;14.50;3.60;;;10.80;99.90;;;;;;5076755;28;20742;-68
2023/05/30 01:09:25;;;;;;;12.83;4.77;;;10.80;99.90;;;;;;5080566;28;20374;-68
2023/05/30 01:12:04;;;;;;;8.53;2.73;;;10.70;99.90;;;;;;5095261;28;20913;-69
2023/05/30 01:14:41;;;;;;;3.43;3.10;;;10.80;99.90;;;;;;5092270;28;20440;-69
2023/05/30 01:17:31;;;;;;;7.30;4.23;;;10.70;99.90;;;;;;5075769;28;20428;-68
2023/05/30 01:20:05;;;;;;;7.87;3.77;;;10.70;99.90;;;;;;5082920;28;20437;-69
2023/05/30 01:22:41;;;;;;;11.43;4.30;;;10.70;99.90;;;;;;5096477;28;20383;-69
2023/05/30 01:25:20;;;;;;;9.70;4.03;;;10.70;99.90;;;;;;5088402;28;20481;-67
2023/05/30 01:28:12;;;;;;;11.73;3.90;;;10.70;99.90;;;;;;5096644;28;20391;-68
2023/05/30 01:30:46;;;;;;;9.13;3.90;;;10.60;99.90;;;;;;5083091;28;20428;-68
2023/05/30 01:33:13;;;;;;;12.03;4.20;;;10.60;99.90;;;;;;5074998;28;20495;-68
2023/05/30 01:35:46;;;;;;;5.90;2.97;;;10.60;99.90;;;;;;5086577;28;20442;-69
2023/05/30 01:38:12;;;;;;;5.10;3.60;;;10.60;99.90;;;;;;5082849;28;20456;-68
2023/05/30 01:40:39;;;;;;;11.43;4.13;;;10.60;99.90;;;;;;5085262;28;20426;-68
2023/05/30 01:43:38;;;;;;;7.53;3.70;;;10.60;99.90;;;;;;5096350;28;20495;-67
2023/05/30 01:46:31;;;;;;;7.33;3.13;;;10.50;99.90;;;;;;5079777;28;20417;-68
2023/05/30 01:49:05;;;;;;;9.77;3.53;;;10.60;99.90;;;;;;5092357;28;20435;-68
2023/05/30 01:51:55;;;;;;;10.50;3.27;;;10.50;99.90;;;;;;5088948;28;20398;-68
2023/05/30 01:54:22;;;;;;;7.70;3.97;;;10.50;99.90;;;;;;5093471;28;20563;-68
2023/05/30 01:56:53;;;;;;;7.47;4.00;;;10.50;99.90;;;;;;5075757;28;20823;-70
2023/05/30 01:59:20;;;;;;;11.60;4.47;;;10.50;99.90;;;;;;5077372;28;20847;-69
2023/05/30 02:01:47;;;;;;;8.03;3.90;;;10.50;99.90;;;;;;5075368;28;20443;-67
2023/05/30 02:04:13;;;;;;;6.33;3.60;;;10.50;99.90;;;;;;5090502;28;20468;-69
2023/05/30 02:06:39;;;;;;;6.10;3.77;;;10.50;99.90;;;;;;5074263;28;20426;-69
2023/05/30 02:09:04;;;;;;;7.83;4.80;;;10.40;99.90;;;;;;5077496;28;20166;-66
2023/05/30 02:11:30;;;;;;;14.00;4.47;;;10.30;99.90;;;;;;5094889;28;20174;-68
2023/05/30 02:13:59;;;;;;;8.90;4.13;;;10.30;99.90;;;;;;5095149;28;20201;-69
2023/05/30 02:16:24;;;;;;;6.47;3.60;;;10.40;99.90;;;;;;5082251;28;20424;-69
2023/05/30 02:18:52;;;;;;;10.63;4.27;;;10.40;99.90;;;;;;5082050;28;20438;-68
2023/05/30 02:21:18;;;;;;;8.57;4.40;;;10.40;99.90;;;;;;5093776;28;20179;-69
2023/05/30 02:23:44;;;;;;;11.63;4.00;;;10.30;99.90;;;;;;5095419;28;20488;-67
2023/05/30 02:26:10;;;;;;;14.13;5.13;;;10.30;99.90;;;;;;5077327;28;20431;-67
2023/05/30 02:28:35;;;;;;;13.80;4.27;;;10.30;99.90;;;;;;5075095;28;20173;-68
2023/05/30 02:31:02;;;;;;;10.20;4.27;;;10.30;99.90;;;;;;5077600;28;20623;-69
2023/05/30 02:33:28;;;;;;;20.10;4.40;;;10.30;99.90;;;;;;5074744;28;20218;-68
2023/05/30 02:35:53;;;;;;;12.47;3.90;;;10.30;99.90;;;;;;5089254;28;20504;-69
2023/05/30 02:38:19;;;;;;;9.03;4.77;;;10.30;99.90;;;;;;5088440;28;20178;-69
2023/05/30 02:40:45;;;;;;;16.63;4.20;;;10.30;99.90;;;;;;5073973;28;20206;-68
2023/05/30 02:43:12;;;;;;;12.87;4.27;;;10.30;99.90;;;;;;5077768;28;20193;-67
2023/05/30 02:45:38;;;;;;;5.23;3.73;;;10.30;99.90;;;;;;5095229;28;20161;-67
2023/05/30 02:48:05;;;;;;;7.23;3.83;;;10.30;99.90;;;;;;5080103;28;20435;-69
2023/05/30 02:50:31;;;;;;;11.50;4.27;;;10.30;99.90;;;;;;5094272;28;20195;-68
2023/05/30 02:52:57;;;;;;;6.87;4.77;;;10.30;1.00;;;;;;5087355;28;20452;-69
2023/05/30 02:55:23;;;;;;;14.43;5.20;;;10.40;1.00;;;;;;5074695;28;20423;-67
2023/05/30 02:57:48;;;;;;;12.53;3.73;;;10.50;1.00;;;;;;5078391;28;20894;-67
2023/05/30 03:00:15;;;;;;;8.00;4.03;;;10.50;1.00;;;;;;5091463;28;20209;-69
2023/05/30 03:02:42;;;;;;;10.00;4.00;;;10.50;1.00;;;;;;5092277;28;20178;-68
2023/05/30 03:05:09;;;;;;;8.77;4.60;;;10.50;1.00;;;;;;5073581;28;20484;-69
2023/05/30 03:07:35;;;;;;;10.50;4.83;;;10.50;1.00;;;;;;5077612;28;20386;-69
2023/05/30 03:10:02;;;;;;;13.93;5.10;;;10.60;1.00;;;;;;5074181;28;20379;-67
2023/05/30 03:12:28;;;;;;;16.00;5.37;;;10.60;1.00;;;;;;5073406;28;20391;-67
2023/05/30 03:14:54;;;;;;;7.97;4.27;;;10.70;1.00;;;;;;5089697;28;20412;-67
2023/05/30 03:17:22;;;;;;;14.10;4.00;;;10.80;1.00;;;;;;5092822;28;20170;-68
2023/05/30 03:19:48;;;;;;;7.53;4.80;;;10.80;1.00;;;;;;5074063;28;20708;-74
2023/05/30 03:22:13;;;;;;;10.27;4.40;;;10.70;1.00;;;;;;5084126;28;20399;-71
2023/05/30 03:24:39;;;;;;;9.60;5.13;;;10.80;1.00;;;;;;5093122;28;20944;-68
2023/05/30 03:27:07;;;;;;;4.73;4.20;;;10.80;1.00;;;;;;5093766;28;20161;-69
2023/05/30 03:29:33;;;;;;;19.80;5.37;;;10.80;1.00;;;;;;5074941;28;20182;-68
2023/05/30 03:31:58;;;;;;;13.73;5.43;;;10.80;1.00;;;;;;5072722;28;20837;-68
2023/05/30 03:34:24;;;;;;;6.97;4.00;;;10.80;1.00;;;;;;5089641;28;20973;-68
2023/05/30 03:36:52;;;;;;;17.77;6.63;;;10.90;1.00;;;;;;5094160;28;20618;-69
2023/05/30 03:39:21;;;;;;;19.63;5.17;;;11.00;1.00;;;;;;5076612;28;20198;-68
2023/05/30 03:41:47;;;;;;;15.73;5.20;;;11.00;1.00;;;;;;5072805;28;20405;-67
2023/05/30 03:44:14;;;;;;;13.00;5.53;;;11.10;1.00;;;;;;5086847;28;20409;-69
2023/05/30 03:46:41;;;;;;;8.67;4.63;;;11.10;1.00;;;;;;5094071;28;20374;-69
2023/05/30 03:49:06;;;;;;;9.23;5.60;;;11.10;1.00;;;;;;5080130;28;20462;-67
2023/05/30 03:51:36;;;;;;;7.90;4.90;;;11.20;1.00;;;;;;5072229;28;20406;-70
2023/05/30 03:54:01;;;;;;;5.87;4.83;;;11.20;1.00;;;;;;5083457;28;20193;-68
2023/05/30 03:56:27;;;;;;;6.80;4.07;;;11.20;1.00;;;;;;5072395;28;20402;-69
2023/05/30 03:58:53;;;;;;;10.50;5.30;;;11.20;1.00;;;;;;5077535;28;20205;-69
2023/05/30 04:01:19;;;;;;;11.63;4.90;;;11.20;1.00;;;;;;5072721;28;20166;-67
2023/05/30 04:03:45;;;;;;;15.50;4.87;;;11.20;1.00;;;;;;5084425;28;20201;-68
2023/05/30 04:06:10;;;;;;;7.20;4.07;;;11.20;1.00;;;;;;5093602;28;20427;-68
2023/05/30 04:08:36;;;;;;;12.27;5.00;;;11.20;1.00;;;;;;5093682;28;20384;-69
2023/05/30 04:11:03;;;;;;;14.93;5.97;;;11.30;1.00;;;;;;5086396;28;20626;-68
2023/05/30 04:13:29;;;;;;;6.70;3.93;;;11.30;1.00;;;;;;5093667;28;20430;-69
2023/05/30 04:15:54;;;;;;;13.30;6.20;;;11.30;1.00;;;;;;5084423;28;20392;-69
2023/05/30 04:18:20;;;;;;;6.53;3.83;;;11.40;1.00;;;;;;5087566;28;20205;-68
2023/05/30 04:20:46;;;;;;;10.73;4.97;;;11.50;1.00;;;;;;5086545;28;20229;-68
2023/05/30 04:23:12;;;;;;;9.50;4.90;;;11.50;1.00;;;;;;5071869;28;20431;-68
2023/05/30 04:25:38;;;;;;;13.07;4.90;;;11.50;1.00;;;;;;5076398;28;20208;-68
2023/05/30 04:28:05;;;;;;;12.80;4.20;;;11.60;1.00;;;;;;5093445;28;20657;-69
2023/05/30 04:30:33;;;;;;;10.67;4.87;;;11.70;1.00;;;;;;5090473;28;20422;-69
2023/05/30 04:32:59;;;;;;;5.53;4.50;;;11.70;1.00;;;;;;5093387;28;20422;-69
2023/05/30 04:35:25;;;;;;;12.00;4.47;;;11.70;1.00;;;;;;5091854;28;20878;-68
2023/05/30 04:37:53;;;;;;;4.80;3.97;;;11.80;1.00;;;;;;5072478;28;20391;-68
2023/05/30 04:40:19;;;;;;;11.60;4.60;;;11.80;1.00;;;;;;5075580;28;20263;-71
2023/05/30 04:42:51;;;;;;;7.73;4.03;;;11.80;1.00;;;;;;5096808;28;20432;-69
2023/05/30 04:45:26;;;;;;;5.97;3.60;;;11.90;1.00;;;;;;5091292;28;20205;-67
2023/05/30 04:47:52;;;;;;;10.60;4.27;;;11.90;1.00;;;;;;5076967;28;20379;-68
2023/05/30 04:50:19;;;;;;;13.13;4.37;;;12.00;1.00;;;;;;5075627;28;20437;-69
2023/05/30 04:52:45;;;;;;;8.47;4.60;;;12.00;1.00;;;;;;5095695;28;20677;-69
2023/05/30 04:55:13;;;;;;;21.37;5.23;;;12.10;1.00;;;;;;5097272;28;20396;-69
2023/05/30 04:57:39;;;;;;;13.40;4.70;;;12.10;1.00;;;;;;5079829;28;20771;-69
2023/05/30 05:00:13;;;;;;;15.30;6.03;;;12.10;1.00;;;;;;5095426;28;20501;-73
2023/05/30 05:02:40;;;;;;;8.10;3.93;;;12.10;1.00;;;;;;5093638;28;20211;-68
2023/05/30 05:05:06;;;;;;;11.23;4.67;;;12.10;1.00;;;;;;5097158;28;20397;-69
2023/05/30 05:07:32;;;;;;;15.80;4.97;;;12.20;1.00;;;;;;5080360;28;20394;-68
2023/05/30 05:09:58;;;;;;;14.90;5.27;;;12.30;1.00;;;;;;5076488;28;20359;-69
2023/05/30 05:12:23;;;;;;;9.67;4.30;;;12.30;1.00;;;;;;5089376;28;20451;-68
2023/05/30 05:14:50;;;;;;;5.80;4.30;;;12.40;1.00;;;;;;5084870;28;20186;-69
2023/05/30 05:17:16;;;;;;;9.53;6.30;;;12.30;1.00;;;;;;5077377;28;20273;-69
2023/05/30 05:19:41;;;;;;;14.50;4.47;;;12.30;1.00;;;;;;5076433;28;20539;-72
2023/05/30 05:22:08;;;;;;;14.23;4.50;;;12.40;1.00;;;;;;5091948;28;20249;-67
2023/05/30 05:24:33;;;;;;;11.60;4.60;;;12.40;1.00;;;;;;5089933;28;20209;-68
2023/05/30 05:26:59;;;;;;;12.73;5.23;;;12.30;1.00;;;;;;5095292;28;20413;-69
2023/05/30 05:29:25;;;;;;;6.50;4.27;;;12.30;1.00;;;;;;5083875;28;20178;-70
2023/05/30 05:31:51;;;;;;;14.03;4.87;;;12.40;1.00;;;;;;5075475;28;20175;-69
2023/05/30 05:34:17;;;;;;;7.53;4.33;;;12.40;1.00;;;;;;5085661;28;20455;-69
2023/05/30 05:36:43;;;;;;;5.83;4.03;;;12.40;1.00;;;;;;5094401;28;20374;-70
2023/05/30 05:39:08;;;;;;;10.93;4.00;;;12.40;1.00;;;;;;5087359;28;20466;-69
2023/05/30 05:41:34;;;;;;;5.67;3.60;;;12.50;1.00;;;;;;5075253;28;20419;-66
2023/05/30 05:44:01;;;;;;;11.00;3.83;;;12.60;1.00;;;;;;5082794;28;20200;-66
2023/05/30 05:46:26;;;;;;;7.73;4.10;;;12.60;1.00;;;;;;5095674;28;20428;-68
2023/05/30 05:48:54;;;;;;;11.97;5.53;;;12.70;1.00;;;;;;5090464;28;20819;-66
2023/05/30 05:51:20;;;;;;;8.70;3.80;;;12.60;1.00;;;;;;5073542;28;20231;-66
2023/05/30 05:53:46;;;;;;;8.43;4.67;;;12.60;1.00;;;;;;5085973;28;20418;-66
2023/05/30 05:56:15;;;;;;;6.20;3.67;;;12.60;1.00;;;;;;5075891;28;20740;-64
2023/05/30 05:58:41;;;;;;;4.50;3.60;;;12.70;1.00;;;;;;5091571;28;20183;-65
2023/05/30 06:01:07;;;;;;;8.93;4.23;;;12.70;1.00;;;;;;5094134;28;20734;-66
2023/05/30 06:03:32;;;;;;;7.07;3.93;;;12.70;1.00;;;;;;5092523;28;20688;-65
2023/05/30 06:05:58;;;;;;;7.20;4.17;;;12.60;1.00;;;;;;5094722;28;20414;-69
2023/05/30 06:08:24;;;;;;;7.80;4.23;;;12.60;1.00;;;;;;5079121;28;20182;-67
2023/05/30 06:10:50;;;;;;;4.87;3.97;;;12.60;1.00;;;;;;5079891;28;20209;-69
2023/05/30 06:13:16;;;;;;;8.20;4.77;;;12.70;1.00;;;;;;5080713;28;20201;-67
2023/05/30 06:15:42;;;;;;;4.80;3.57;;;12.70;1.00;;;;;;5075340;28;20735;-67
2023/05/30 06:18:07;;;;;;;10.70;3.80;;;12.70;1.00;;;;;;5088187;28;20192;-67
2023/05/30 06:20:33;;;;;;;5.77;3.63;;;12.80;1.00;;;;;;5094517;28;20238;-70
2023/05/30 06:22:59;;;;;;;8.00;3.50;;;12.90;1.00;;;;;;5093305;28;20201;-68
2023/05/30 06:25:26;;;;;;;12.33;4.20;;;12.90;1.00;;;;;;5091254;28;20190;-67
2023/05/30 06:27:52;;;;;;;11.90;4.27;;;12.90;1.00;;;;;;5095106;28;20255;-68
2023/05/30 06:30:18;;;;;;;12.50;5.20;;;12.90;1.00;;;;;;5087867;28;20395;-69
2023/05/30 06:32:44;;;;;;;9.50;4.00;;;12.90;1.00;;;;;;5075060;28;20442;-70
2023/05/30 06:35:10;;;;;;;6.10;4.17;;;12.90;1.00;;;;;;5085706;28;20451;-69
2023/05/30 06:37:35;;;;;;;7.43;5.03;;;13.00;1.00;;;;;;5095432;28;20161;-68
2023/05/30 06:40:02;;;;;;;7.90;3.97;;;13.10;1.00;;;;;;5085967;28;20489;-68
2023/05/30 06:42:28;;;;;;;5.70;3.20;;;13.20;1.00;;;;;;5083918;28;20646;-69
2023/05/30 06:44:53;;;;;;;6.50;4.57;;;13.20;1.00;;;;;;5082143;28;20390;-68
2023/05/30 06:47:19;;;;;;;6.20;4.20;;;13.30;1.00;;;;;;5094008;28;20185;-68
2023/05/30 06:49:45;;;;;;;7.90;3.97;;;13.40;1.00;;;;;;5089257;28;20174;-67
2023/05/30 06:52:10;;;;;;;5.53;4.70;;;13.20;1.00;;;;;;5072800;28;20178;-67
2023/05/30 06:54:36;;;;;;;17.53;4.20;;;13.20;1.00;;;;;;5077823;28;20212;-69
2023/05/30 06:57:05;;;;;;;19.07;4.33;;;13.20;1.00;;;;;;5094731;28;20645;-68
2023/05/30 06:59:33;;;;;;;7.50;4.50;;;13.30;1.00;;;;;;5084870;28;20224;-70
2023/05/30 07:01:59;;;;;;;7.03;4.63;;;13.40;1.00;;;;;;5090360;28;20423;-67
2023/05/30 07:04:25;;;;;;;5.60;4.40;;;13.40;1.00;;;;;;5094622;28;20431;-69
2023/05/30 07:06:50;;;;;;;10.73;5.47;;;13.30;1.00;;;;;;5087581;28;20790;-68
2023/05/30 07:09:16;;;;;;;12.43;4.10;;;13.30;1.00;;;;;;5073046;28;20216;-67
2023/05/30 07:11:42;;;;;;;7.47;4.10;;;13.30;1.00;;;;;;5073397;28;20173;-69
2023/05/30 07:14:08;;;;;;;8.23;4.40;;;13.40;1.00;;;;;;5073911;28;20661;-68
2023/05/30 07:16:33;;;;;;;11.13;4.63;;;13.40;1.00;;;;;;5074342;28;20170;-69
2023/05/30 07:19:00;;;;;;;5.50;3.73;;;13.50;1.00;;;;;;5081506;28;20250;-71
2023/05/30 07:21:28;;;;;;;3.77;3.37;;;13.60;1.00;;;;;;5091043;28;20228;-68
2023/05/30 07:23:54;;;;;;;10.83;4.30;;;13.60;1.00;;;;;;5090982;28;20481;-68
2023/05/30 07:26:20;;;;;;;4.73;3.87;;;13.80;1.00;;;;;;5094380;28;20378;-68
2023/05/30 07:28:45;;;;;;;8.17;3.90;;;13.90;1.00;;;;;;5093394;28;20394;-67
2023/05/30 07:31:11;;;;;;;10.47;4.90;;;13.90;1.00;;;;;;5092862;28;20400;-69
2023/05/30 07:33:37;;;;;;;5.80;3.33;;;14.00;1.00;;;;;;5087490;28;20224;-69
2023/05/30 07:36:03;;;;;;;6.23;4.10;;;14.00;1.00;;;;;;5073917;28;20175;-68
2023/05/30 07:38:28;;;;;;;11.27;5.00;;;14.10;1.00;;;;;;5073962;28;20171;-68
2023/05/30 07:40:54;;;;;;;9.23;4.03;;;14.10;99.90;;;;;;5072814;28;20193;-69
2023/05/30 07:43:20;;;;;;;7.17;4.23;;;14.20;99.90;;;;;;5073663;28;20190;-69
2023/05/30 07:45:45;;;;;;;7.60;3.70;;;14.30;99.90;;;;;;5072721;28;20618;-68
2023/05/30 07:48:11;;;;;;;10.83;3.00;;;14.30;99.90;;;;;;5072135;28;20189;-70
2023/05/30 07:50:37;;;;;;;5.43;3.87;;;14.20;99.90;;;;;;5071648;28;20263;-69
2023/05/30 07:53:03;;;;;;;10.50;3.10;;;14.10;99.90;;;;;;5073582;28;20187;-68
2023/05/30 07:55:28;;;;;;;5.10;3.87;;;14.10;99.90;;;;;;5072406;28;20559;-71
2023/05/30 07:57:54;;;;;;;6.00;3.67;;;14.20;99.90;;;;;;5072513;28;20181;-68
2023/05/30 08:00:20;;;;;;;7.80;3.70;;;14.20;99.90;;;;;;5072374;28;20290;-70
2023/05/30 08:02:46;;;;;;;7.53;3.90;;;14.20;99.90;;;;;;5093646;28;20677;-67
2023/05/30 08:05:12;;;;;;;7.43;3.73;;;14.10;99.90;;;;;;5082542;28;20418;-68
2023/05/30 08:07:38;;;;;;;5.90;4.60;;;14.10;99.90;;;;;;5072948;28;20173;-70
2023/05/30 08:10:03;;;;;;;7.60;4.17;;;14.10;99.90;;;;;;5085792;28;20177;-75
2023/05/30 08:12:29;;;;;;;5.50;3.27;;;14.20;99.90;;;;;;5092938;28;20199;-69
2023/05/30 08:14:56;;;;;;;3.20;2.87;;;14.30;99.90;;;;;;5093720;28;20510;-69
2023/05/30 08:17:23;;;;;;;7.10;3.60;;;14.40;99.90;;;;;;5081093;28;20485;-70
2023/05/30 08:19:53;;;;;;;3.10;2.80;;;14.40;99.90;;;;;;5073115;28;20444;-68
2023/05/30 08:22:21;;;;;;;5.23;3.53;;;14.20;99.90;;;;;;5071832;28;20436;-69
2023/05/30 08:24:50;;;;;;;6.13;3.27;;;14.20;99.90;;;;;;5072826;28;20424;-68
2023/05/30 08:27:16;;;;;;;4.03;3.13;;;14.30;99.90;;;;;;5073283;28;20748;-68
2023/05/30 08:29:42;;;;;;;13.00;3.63;;;14.40;99.90;;;;;;5073280;28;20530;-67
2023/05/30 08:32:08;;;;;;;3.40;3.10;;;14.50;99.90;;;;;;5082925;28;20526;-70
2023/05/30 08:34:34;;;;;;;3.80;3.03;;;14.50;99.90;;;;;;5093448;28;20255;-68
2023/05/30 08:37:01;;;;;;;4.80;3.27;;;14.30;99.90;;;;;;5093375;28;20403;-70
2023/05/30 08:39:26;;;;;;;5.30;3.60;;;14.20;99.90;;;;;;5090884;28;20451;-69
2023/05/30 08:41:52;;;;;;;4.60;2.80;;;14.10;99.90;;;;;;5092176;28;20404;-69
2023/05/30 08:44:19;;;;;;;4.83;3.27;;;14.00;99.90;;;;;;5093265;28;20185;-68
2023/05/30 08:46:45;;;;;;;9.20;3.13;;;14.10;99.90;;;;;;5075455;28;20428;-68
2023/05/30 08:49:15;;;;;;;4.53;2.87;;;14.10;99.90;;;;;;5093193;28;20385;-70
2023/05/30 08:51:43;;;;;;;5.63;3.50;;;14.10;99.90;;;;;;5092210;28;20378;-69
2023/05/30 08:54:32;;;;;;;7.30;3.30;;;14.30;99.90;;;;;;5092990;28;20537;-67
2023/05/30 08:57:15;;;;;;;4.77;3.67;;;14.30;99.90;;;;;;5071833;28;20450;-69
2023/05/30 08:59:43;;;;;;;6.03;3.20;;;14.20;99.90;;;;;;5083055;28;20462;-71
2023/05/30 09:02:11;;;;;;;2.87;2.67;;;14.10;99.90;;;;;;5090882;28;20414;-69
2023/05/30 09:04:37;;;;;;;7.23;3.60;;;14.00;99.90;;;;;;5093168;28;20426;-70
2023/05/30 09:07:03;;;;;;;6.90;3.60;;;14.00;99.90;;;;;;5093157;28;20839;-69
2023/05/30 09:09:32;;;;;;;6.33;3.57;;;14.00;99.90;;;;;;5093049;28;20801;-68
2023/05/30 09:11:58;;;;;;;9.97;4.00;;;14.00;99.90;;;;;;5084870;28;20529;-69
2023/05/30 09:14:24;;;;;;;5.30;3.93;;;14.00;99.90;;;;;;5091227;28;20434;-69
2023/05/30 09:16:50;;;;;;;5.37;3.70;;;14.10;99.90;;;;;;5080449;28;20224;-69
2023/05/30 09:19:26;;;;;;;3.27;2.93;;;14.30;99.90;;;;;;5072513;28;20806;-68
2023/05/30 09:21:52;;;;;;;4.40;3.10;;;14.40;99.90;;;;;;5082787;28;20428;-69
2023/05/30 09:45:26;;;;;;;8.30;3.80;;;13.80;99.90;;;;;;5110990;27;20533;-69
2023/05/30 09:47:53;;;;;;;4.07;3.67;;;13.90;99.90;;;;;;5085380;28;20480;-67
2023/05/30 09:50:23;;;;;;;4.40;3.60;;;14.00;99.90;;;;;;5089843;28;20172;-67
2023/05/30 09:52:51;;;;;;;4.50;3.37;;;14.20;99.90;;;;;;5077567;28;20435;-66
2023/05/30 09:55:18;;;;;;;5.00;3.00;;;14.40;99.90;;;;;;5090003;28;20459;-67
2023/05/30 09:57:48;;;;;;;5.87;3.97;;;14.50;99.90;;;;;;5086879;28;20915;-66
2023/05/30 10:00:16;;;;;;;7.20;4.83;;;14.50;99.90;;;;;;5086197;28;20423;-64
2023/05/30 10:02:44;;;;;;;6.57;4.07;;;14.50;99.90;;;;;;5080792;28;20416;-64
2023/05/30 10:05:24;;;;;;;5.53;3.20;;;14.40;99.90;;;;;;5110936;28;21011;-69
2023/05/30 10:07:51;;;;;;;5.37;3.70;;;14.50;99.90;;;;;;5092401;28;20438;-66
2023/05/30 10:10:18;;;;;;;4.87;3.47;;;14.60;99.90;;;;;;5079481;28;20436;-64
2023/05/30 10:12:49;;;;;;;3.60;3.30;;;14.60;99.90;;;;;;5082668;28;20504;-68
2023/05/30 10:15:19;;;;;;;8.53;3.50;;;14.70;99.90;;;;;;5090247;28;20432;-66
2023/05/30 10:18:20;;;;;;;6.23;3.43;;;14.80;99.90;;;;;;5089772;28;20748;-70
2023/05/30 10:20:47;;;;;;;5.63;3.50;;;14.80;99.90;;;;;;5088411;28;20440;-67
2023/05/30 10:23:15;;;;;;;6.13;3.60;;;14.70;99.90;;;;;;5089903;28;20432;-68
2023/05/30 10:25:51;;;;;;;6.80;3.67;;;14.70;99.90;;;;;;5087853;28;20411;-66
2023/05/30 10:28:23;;;;;;;3.80;3.40;;;14.70;99.90;;;;;;5088235;28;20398;-65
2023/05/30 10:30:50;;;;;;;13.80;4.53;;;14.70;99.90;;;;;;5084997;28;20432;-69
2023/05/30 10:33:18;;;;;;;3.60;3.30;;;14.70;99.90;;;;;;5072502;28;20434;-70
2023/05/30 10:35:46;;;;;;;4.80;3.37;;;14.70;99.90;;;;;;5089324;28;20424;-66
2023/05/30 10:38:12;;;;;;;9.87;3.90;;;14.90;99.90;;;;;;5089966;28;20430;-69
2023/05/30 10:40:53;;;;;;;4.50;3.50;;;15.10;99.90;;;;;;5075949;28;20788;-68
2023/05/30 10:43:53;;;;;;;7.60;3.43;;;15.20;99.90;;;;;;5088232;28;20455;-66
2023/05/30 10:46:31;;;;;;;4.33;2.90;;;15.30;99.90;;;;;;5072543;28;20511;-69
2023/05/30 10:49:03;;;;;;;4.37;2.70;;;15.30;99.90;;;;;;5087148;28;20443;-68
2023/05/30 10:51:29;;;;;;;5.60;3.20;;;15.30;99.90;;;;;;5068607;28;20401;-66
2023/05/30 10:53:57;;;;;;;6.13;3.43;;;15.00;99.90;;;;;;5069159;28;20523;-68
2023/05/30 10:56:29;;;;;;;4.77;3.73;;;15.10;99.90;;;;;;5075652;28;20643;-69
2023/05/30 10:58:55;;;;;;;3.80;2.73;;;15.00;99.90;;;;;;5075239;28;20399;-68
2023/05/30 11:01:28;;;;;;;6.90;3.10;;;15.10;99.90;;;;;;5073159;28;20752;-69
2023/05/30 11:03:58;;;;;;;3.90;2.77;;;15.20;99.90;;;;;;5074044;28;20448;-69
2023/05/30 11:06:26;;;;;;;3.53;3.23;;;15.40;99.90;;;;;;5056179;28;20436;-69
2023/05/30 11:08:53;;;;;;;3.40;3.10;;;15.60;99.90;;;;;;5056008;28;20405;-67
2023/05/30 11:11:19;;;;;;;4.30;3.40;;;15.60;99.90;;;;;;5072659;28;20428;-69
2023/05/30 11:13:52;;;;;;;12.17;3.43;;;15.80;99.90;;;;;;5075868;28;20420;-66
2023/05/30 11:16:24;;;;;;;7.43;3.67;;;15.90;99.90;;;;;;5057367;28;20931;-66
2023/05/30 11:18:53;;;;;;;10.17;3.13;;;16.10;99.90;;;;;;5059817;28;20467;-70
2023/05/30 11:21:57;;;;;;;8.70;3.70;;;16.20;99.90;;;;;;5054637;28;20441;-66
2023/05/30 11:24:27;;;;;;;4.03;3.17;;;16.10;99.90;;;;;;5058832;28;20460;-67
2023/05/30 11:26:57;;;;;;;6.63;4.30;;;16.30;99.90;;;;;;5075402;28;20503;-69
2023/05/30 11:29:36;;;;;;;3.63;3.33;;;16.60;99.90;;;;;;5070115;28;20421;-66
2023/05/30 11:32:06;;;;;;;3.50;3.20;;;16.70;99.90;;;;;;5054574;28;20401;-66
2023/05/30 11:34:32;;;;;;;4.40;3.23;;;16.90;99.90;;;;;;5060033;28;20431;-69
2023/05/30 11:36:58;;;;;;;4.67;3.43;;;17.00;99.90;;;;;;5064962;28;20436;-68
2023/05/30 11:39:25;;;;;;;8.30;3.57;;;17.00;99.90;;;;;;5058633;28;20778;-67
2023/05/30 11:41:50;;;;;;;4.83;3.77;;;17.00;99.90;;;;;;5074354;28;20635;-67
2023/05/30 11:44:18;;;;;;;5.10;3.77;;;17.10;99.90;;;;;;5068355;28;20464;-67
2023/05/30 11:46:43;;;;;;;3.70;3.10;;;17.30;99.90;;;;;;5055027;28;20515;-67
2023/05/30 11:49:09;;;;;;;11.30;3.63;;;17.50;99.90;;;;;;5057152;28;20408;-68
2023/05/30 11:51:38;;;;;;;6.10;3.17;;;17.60;99.90;;;;;;5073198;28;20166;-67
2023/05/30 11:54:07;;;;;;;5.63;3.30;;;17.40;99.90;;;;;;5067968;28;20201;-70
2023/05/30 11:56:33;;;;;;;3.40;3.20;;;17.10;99.90;;;;;;5070007;28;20429;-70
2023/05/30 11:58:59;;;;;;;3.80;3.20;;;17.10;99.90;;;;;;5054732;28;20424;-70
2023/05/30 12:01:25;;;;;;;3.70;3.27;;;17.00;99.90;;;;;;5064966;28;20171;-70
2023/05/30 12:03:53;;;;;;;5.43;3.10;;;17.20;99.90;;;;;;5054641;28;20252;-70
2023/05/30 12:06:19;;;;;;;4.13;3.63;;;17.20;99.90;;;;;;5059512;28;20420;-69
2023/05/30 12:08:46;;;;;;;5.70;3.40;;;17.30;99.90;;;;;;5066615;28;20428;-67
2023/05/30 12:11:15;;;;;;;5.87;4.63;;;17.20;99.90;;;;;;5067764;28;20174;-70
2023/05/30 12:13:42;;;;;;;8.00;3.83;;;17.50;99.90;;;;;;5063928;28;20448;-68
2023/05/30 12:16:12;;;;;;;6.00;3.50;;;17.90;99.90;;;;;;5073521;28;20420;-67
2023/05/30 12:18:39;;;;;;;5.97;3.97;;;18.00;99.90;;;;;;5058145;28;20921;-70
2023/05/30 12:21:06;;;;;;;3.23;3.03;;;18.10;99.90;;;;;;5063727;28;20431;-71
2023/05/30 12:23:32;;;;;;;3.60;3.30;;;18.30;99.90;;;;;;5069029;28;20464;-70
2023/05/30 12:25:58;;;;;;;7.37;3.30;;;18.70;99.90;;;;;;5068116;28;20425;-68
2023/05/30 12:28:24;;;;;;;5.30;3.33;;;19.50;99.90;;;;;;5063105;28;20436;-68
2023/05/30 12:30:53;;;;;;;3.73;3.47;;;20.60;99.90;;;;;;5067886;28;20183;-68
2023/05/30 12:33:21;;;;;;;3.20;2.80;;;21.70;99.90;;;;;;5070557;28;20190;-69
2023/05/30 12:35:52;;;;;;;8.30;3.37;;;22.50;99.90;;;;;;5072523;28;20494;-69
2023/05/30 12:38:21;;;;;;;5.50;2.90;;;23.10;99.90;;;;;;5060200;28;20428;-72
2023/05/30 12:40:48;;;;;;;7.10;3.80;;;23.40;99.90;;;;;;5059604;28;20431;-68
2023/05/30 12:43:15;;;;;;;5.20;3.00;;;23.00;99.90;;;;;;5065280;28;20449;-69
2023/05/30 12:45:44;;;;;;;4.90;2.77;;;22.30;99.90;;;;;;5072302;28;20397;-71
2023/05/30 12:48:10;;;;;;;5.77;2.97;;;22.10;99.90;;;;;;5064521;28;20844;-70
2023/05/30 12:50:37;;;;;;;4.57;3.00;;;21.60;99.90;;;;;;5060135;28;20786;-70
2023/05/30 12:53:02;;;;;;;5.07;3.10;;;21.50;99.90;;;;;;5056073;28;20960;-69
2023/05/30 12:55:28;;;;;;;4.57;2.43;;;22.00;99.90;;;;;;5058268;28;20420;-72
2023/05/30 12:57:55;;;;;;;2.73;2.47;;;22.30;99.90;;;;;;5060028;28;20171;-70
2023/05/30 13:00:21;;;;;;;4.40;2.97;;;22.70;99.90;;;;;;5055706;28;20167;-74
2023/05/30 13:02:47;;;;;;;3.30;2.60;;;23.20;99.90;;;;;;5053162;28;20518;-71
2023/05/30 13:05:13;;;;;;;4.83;2.93;;;22.80;99.90;;;;;;5053656;28;20205;-69
2023/05/30 13:07:39;;;;;;;4.40;2.97;;;22.10;99.90;;;;;;5057936;28;20582;-71
2023/05/30 13:10:05;;;;;;;4.87;3.33;;;22.00;99.90;;;;;;5074190;28;20177;-73
2023/05/30 13:12:31;;;;;;;4.63;2.90;;;22.50;99.90;;;;;;5066682;28;20182;-71